sensor_id;sensor_type;location;lat;lon;timestamp;P1;durP1;ratioP1;P2;durP2;ratioP2
16352;SDS011;8286;51.274;9.542;2023-02-02T00:01:10;7.13;;;1.90;;
16352;SDS011;8286;51.274;9.542;2023-02-02T00:03:37;6.33;;;1.53;;
16352;SDS011;8286;51.274;9.542;2023-02-02T00:06:04;6.27;;;1.17;;
16352;SDS011;8286;51.274;9.542;2023-02-02T00:08:30;4.80;;;1.67;;
16352;SDS011;8286;51.274;9.542;2023-02-02T00:10:57;2.60;;;1.93;;
16352;SDS011;8286;51.274;9.542;2023-02-02T00:13:24;10.27;;;1.83;;
16352;SDS011;8286;51.274;9.542;2023-02-02T00:15:51;10.10;;;1.90;;
16352;SDS011;8286;51.274;9.542;2023-02-02T00:18:19;7.80;;;2.77;;
16352;SDS011;8286;51.274;9.542;2023-02-02T00:20:45;4.70;;;2.17;;
16352;SDS011;8286;51.274;9.542;2023-02-02T00:23:14;8.57;;;2.03;;
16352;SDS011;8286;51.274;9.542;2023-02-02T00:25:41;6.80;;;1.67;;
16352;SDS011;8286;51.274;9.542;2023-02-02T00:28:07;5.10;;;1.50;;
16352;SDS011;8286;51.274;9.542;2023-02-02T00:30:34;5.00;;;1.97;;
16352;SDS011;8286;51.274;9.542;2023-02-02T00:33:00;5.53;;;1.43;;
16352;SDS011;8286;51.274;9.542;2023-02-02T00:35:28;7.33;;;1.60;;
16352;SDS011;8286;51.274;9.542;2023-02-02T00:37:55;3.77;;;1.80;;
16352;SDS011;8286;51.274;9.542;2023-02-02T00:40:21;6.23;;;1.27;;
16352;SDS011;8286;51.274;9.542;2023-02-02T00:42:48;3.30;;;1.63;;
16352;SDS011;8286;51.274;9.542;2023-02-02T00:45:14;7.93;;;1.53;;
16352;SDS011;8286;51.274;9.542;2023-02-02T00:47:40;8.27;;;1.60;;
16352;SDS011;8286;51.274;9.542;2023-02-02T00:50:08;3.13;;;1.63;;
16352;SDS011;8286;51.274;9.542;2023-02-02T00:52:37;4.27;;;1.90;;
16352;SDS011;8286;51.274;9.542;2023-02-02T00:55:04;4.53;;;1.73;;
16352;SDS011;8286;51.274;9.542;2023-02-02T00:57:31;5.77;;;1.67;;
16352;SDS011;8286;51.274;9.542;2023-02-02T00:59:58;6.27;;;1.47;;
16352;SDS011;8286;51.274;9.542;2023-02-02T01:02:24;1.90;;;1.30;;
16352;SDS011;8286;51.274;9.542;2023-02-02T01:04:51;11.07;;;1.97;;
16352;SDS011;8286;51.274;9.542;2023-02-02T01:07:17;6.63;;;1.90;;
16352;SDS011;8286;51.274;9.542;2023-02-02T01:09:45;6.00;;;1.67;;
16352;SDS011;8286;51.274;9.542;2023-02-02T01:12:12;3.17;;;1.30;;
16352;SDS011;8286;51.274;9.542;2023-02-02T01:14:38;3.60;;;1.53;;
16352;SDS011;8286;51.274;9.542;2023-02-02T01:17:05;13.43;;;2.23;;
16352;SDS011;8286;51.274;9.542;2023-02-02T01:19:31;4.60;;;1.30;;
16352;SDS011;8286;51.274;9.542;2023-02-02T01:21:58;7.47;;;2.30;;
16352;SDS011;8286;51.274;9.542;2023-02-02T01:24:24;5.20;;;1.60;;
16352;SDS011;8286;51.274;9.542;2023-02-02T01:26:52;4.90;;;1.40;;
16352;SDS011;8286;51.274;9.542;2023-02-02T01:29:18;9.40;;;1.90;;
16352;SDS011;8286;51.274;9.542;2023-02-02T01:31:45;4.67;;;1.47;;
16352;SDS011;8286;51.274;9.542;2023-02-02T01:34:12;6.47;;;1.40;;
16352;SDS011;8286;51.274;9.542;2023-02-02T01:36:38;7.30;;;1.70;;
16352;SDS011;8286;51.274;9.542;2023-02-02T01:39:05;2.13;;;1.30;;
16352;SDS011;8286;51.274;9.542;2023-02-02T01:41:31;9.03;;;1.80;;
16352;SDS011;8286;51.274;9.542;2023-02-02T01:44:00;4.33;;;2.03;;
16352;SDS011;8286;51.274;9.542;2023-02-02T01:46:28;6.83;;;1.47;;
16352;SDS011;8286;51.274;9.542;2023-02-02T01:48:57;7.63;;;1.27;;
16352;SDS011;8286;51.274;9.542;2023-02-02T01:51:28;3.90;;;1.37;;
16352;SDS011;8286;51.274;9.542;2023-02-02T01:53:56;6.77;;;1.63;;
16352;SDS011;8286;51.274;9.542;2023-02-02T01:56:24;9.13;;;1.57;;
16352;SDS011;8286;51.274;9.542;2023-02-02T01:58:52;5.77;;;1.50;;
16352;SDS011;8286;51.274;9.542;2023-02-02T02:01:20;9.07;;;1.53;;
16352;SDS011;8286;51.274;9.542;2023-02-02T02:03:47;8.20;;;1.93;;
16352;SDS011;8286;51.274;9.542;2023-02-02T02:06:14;4.33;;;1.50;;
16352;SDS011;8286;51.274;9.542;2023-02-02T02:08:45;4.70;;;1.47;;
16352;SDS011;8286;51.274;9.542;2023-02-02T02:11:16;4.63;;;1.60;;
16352;SDS011;8286;51.274;9.542;2023-02-02T02:13:43;8.17;;;1.50;;
16352;SDS011;8286;51.274;9.542;2023-02-02T02:16:39;6.27;;;1.60;;
16352;SDS011;8286;51.274;9.542;2023-02-02T02:19:15;8.00;;;2.03;;
16352;SDS011;8286;51.274;9.542;2023-02-02T02:21:56;4.73;;;2.07;;
16352;SDS011;8286;51.274;9.542;2023-02-02T02:24:55;5.93;;;2.10;;
16352;SDS011;8286;51.274;9.542;2023-02-02T02:34:08;5.47;;;1.37;;
16352;SDS011;8286;51.274;9.542;2023-02-02T02:36:37;3.17;;;1.23;;
16352;SDS011;8286;51.274;9.542;2023-02-02T02:39:11;4.83;;;1.50;;
16352;SDS011;8286;51.274;9.542;2023-02-02T02:41:42;9.37;;;1.63;;
16352;SDS011;8286;51.274;9.542;2023-02-02T02:44:12;4.27;;;1.57;;
16352;SDS011;8286;51.274;9.542;2023-02-02T02:46:40;4.90;;;1.50;;
16352;SDS011;8286;51.274;9.542;2023-02-02T02:49:09;4.80;;;1.57;;
16352;SDS011;8286;51.274;9.542;2023-02-02T02:51:46;6.60;;;1.33;;
16352;SDS011;8286;51.274;9.542;2023-02-02T02:54:14;9.87;;;1.70;;
16352;SDS011;8286;51.274;9.542;2023-02-02T02:56:54;3.97;;;1.57;;
16352;SDS011;8286;51.274;9.542;2023-02-02T02:59:30;8.97;;;1.60;;
16352;SDS011;8286;51.274;9.542;2023-02-02T03:02:03;6.33;;;1.33;;
16352;SDS011;8286;51.274;9.542;2023-02-02T03:04:38;8.40;;;1.47;;
16352;SDS011;8286;51.274;9.542;2023-02-02T03:07:09;7.57;;;1.60;;
16352;SDS011;8286;51.274;9.542;2023-02-02T03:09:41;9.13;;;2.10;;
16352;SDS011;8286;51.274;9.542;2023-02-02T03:12:08;4.73;;;1.67;;
16352;SDS011;8286;51.274;9.542;2023-02-02T03:14:35;5.90;;;1.60;;
16352;SDS011;8286;51.274;9.542;2023-02-02T03:17:03;9.50;;;1.73;;
16352;SDS011;8286;51.274;9.542;2023-02-02T03:19:29;4.23;;;2.00;;
16352;SDS011;8286;51.274;9.542;2023-02-02T03:21:58;5.20;;;1.50;;
16352;SDS011;8286;51.274;9.542;2023-02-02T03:24:24;3.77;;;1.23;;
16352;SDS011;8286;51.274;9.542;2023-02-02T03:26:51;5.87;;;1.23;;
16352;SDS011;8286;51.274;9.542;2023-02-02T03:29:17;7.37;;;1.83;;
16352;SDS011;8286;51.274;9.542;2023-02-02T03:31:44;5.80;;;1.33;;
16352;SDS011;8286;51.274;9.542;2023-02-02T03:34:11;8.87;;;1.70;;
16352;SDS011;8286;51.274;9.542;2023-02-02T03:36:37;5.77;;;1.30;;
16352;SDS011;8286;51.274;9.542;2023-02-02T03:39:05;4.87;;;1.50;;
16352;SDS011;8286;51.274;9.542;2023-02-02T03:41:32;2.10;;;1.10;;
16352;SDS011;8286;51.274;9.542;2023-02-02T03:43:58;6.97;;;1.37;;
16352;SDS011;8286;51.274;9.542;2023-02-02T03:46:25;11.13;;;1.80;;
16352;SDS011;8286;51.274;9.542;2023-02-02T03:48:51;8.30;;;1.93;;
16352;SDS011;8286;51.274;9.542;2023-02-02T03:51:18;7.70;;;2.30;;
16352;SDS011;8286;51.274;9.542;2023-02-02T03:53:44;6.17;;;2.20;;
16352;SDS011;8286;51.274;9.542;2023-02-02T03:56:13;3.33;;;1.50;;
16352;SDS011;8286;51.274;9.542;2023-02-02T03:58:40;6.60;;;1.63;;
16352;SDS011;8286;51.274;9.542;2023-02-02T04:01:08;6.23;;;1.30;;
16352;SDS011;8286;51.274;9.542;2023-02-02T04:03:36;5.03;;;1.60;;
16352;SDS011;8286;51.274;9.542;2023-02-02T04:06:02;10.67;;;1.57;;
16352;SDS011;8286;51.274;9.542;2023-02-02T04:08:29;5.73;;;1.30;;
16352;SDS011;8286;51.274;9.542;2023-02-02T04:10:56;4.20;;;1.30;;
16352;SDS011;8286;51.274;9.542;2023-02-02T04:13:24;12.27;;;1.90;;
16352;SDS011;8286;51.274;9.542;2023-02-02T04:15:55;9.40;;;1.77;;
16352;SDS011;8286;51.274;9.542;2023-02-02T04:18:23;3.23;;;1.20;;
16352;SDS011;8286;51.274;9.542;2023-02-02T04:20:49;8.50;;;1.53;;
16352;SDS011;8286;51.274;9.542;2023-02-02T04:23:21;8.97;;;1.57;;
16352;SDS011;8286;51.274;9.542;2023-02-02T04:25:48;5.40;;;1.60;;
16352;SDS011;8286;51.274;9.542;2023-02-02T04:28:14;5.90;;;2.00;;
16352;SDS011;8286;51.274;9.542;2023-02-02T04:30:42;10.17;;;1.23;;
16352;SDS011;8286;51.274;9.542;2023-02-02T04:33:09;6.50;;;1.80;;
16352;SDS011;8286;51.274;9.542;2023-02-02T04:35:35;8.03;;;1.77;;
16352;SDS011;8286;51.274;9.542;2023-02-02T04:38:02;5.27;;;2.27;;
16352;SDS011;8286;51.274;9.542;2023-02-02T04:40:28;6.33;;;1.40;;
16352;SDS011;8286;51.274;9.542;2023-02-02T04:42:55;3.80;;;1.77;;
16352;SDS011;8286;51.274;9.542;2023-02-02T04:45:22;7.73;;;1.80;;
16352;SDS011;8286;51.274;9.542;2023-02-02T04:47:50;7.27;;;2.10;;
16352;SDS011;8286;51.274;9.542;2023-02-02T04:50:17;7.53;;;1.90;;
16352;SDS011;8286;51.274;9.542;2023-02-02T04:52:43;4.63;;;1.50;;
16352;SDS011;8286;51.274;9.542;2023-02-02T04:55:10;5.67;;;1.97;;
16352;SDS011;8286;51.274;9.542;2023-02-02T04:57:36;11.07;;;1.73;;
16352;SDS011;8286;51.274;9.542;2023-02-02T05:00:03;4.87;;;1.53;;
16352;SDS011;8286;51.274;9.542;2023-02-02T05:02:30;7.13;;;2.10;;
16352;SDS011;8286;51.274;9.542;2023-02-02T05:05:02;6.97;;;1.80;;
16352;SDS011;8286;51.274;9.542;2023-02-02T05:07:28;2.27;;;1.50;;
16352;SDS011;8286;51.274;9.542;2023-02-02T05:09:55;5.00;;;1.67;;
16352;SDS011;8286;51.274;9.542;2023-02-02T05:12:21;6.67;;;1.90;;
16352;SDS011;8286;51.274;9.542;2023-02-02T05:14:48;8.33;;;1.77;;
16352;SDS011;8286;51.274;9.542;2023-02-02T05:17:15;10.07;;;2.37;;
16352;SDS011;8286;51.274;9.542;2023-02-02T05:19:41;3.57;;;1.50;;
16352;SDS011;8286;51.274;9.542;2023-02-02T05:22:09;2.73;;;1.47;;
16352;SDS011;8286;51.274;9.542;2023-02-02T05:24:36;4.77;;;1.57;;
16352;SDS011;8286;51.274;9.542;2023-02-02T05:27:02;6.37;;;1.73;;
16352;SDS011;8286;51.274;9.542;2023-02-02T05:29:29;6.87;;;2.10;;
16352;SDS011;8286;51.274;9.542;2023-02-02T05:31:56;7.43;;;2.30;;
16352;SDS011;8286;51.274;9.542;2023-02-02T05:34:22;2.03;;;1.40;;
16352;SDS011;8286;51.274;9.542;2023-02-02T05:36:51;8.87;;;1.77;;
16352;SDS011;8286;51.274;9.542;2023-02-02T05:39:19;7.77;;;2.23;;
16352;SDS011;8286;51.274;9.542;2023-02-02T05:41:45;8.20;;;1.50;;
16352;SDS011;8286;51.274;9.542;2023-02-02T05:44:12;6.50;;;1.60;;
16352;SDS011;8286;51.274;9.542;2023-02-02T05:46:39;9.70;;;1.87;;
16352;SDS011;8286;51.274;9.542;2023-02-02T05:49:06;10.33;;;2.67;;
16352;SDS011;8286;51.274;9.542;2023-02-02T05:51:35;8.67;;;2.30;;
16352;SDS011;8286;51.274;9.542;2023-02-02T05:54:04;4.53;;;1.60;;
16352;SDS011;8286;51.274;9.542;2023-02-02T05:56:32;5.67;;;1.80;;
16352;SDS011;8286;51.274;9.542;2023-02-02T05:58:59;12.17;;;2.27;;
16352;SDS011;8286;51.274;9.542;2023-02-02T06:01:25;8.83;;;1.70;;
16352;SDS011;8286;51.274;9.542;2023-02-02T06:03:52;3.17;;;1.87;;
16352;SDS011;8286;51.274;9.542;2023-02-02T06:06:18;3.33;;;2.10;;
16352;SDS011;8286;51.274;9.542;2023-02-02T06:08:45;8.83;;;2.63;;
16352;SDS011;8286;51.274;9.542;2023-02-02T06:11:12;6.97;;;2.23;;
16352;SDS011;8286;51.274;9.542;2023-02-02T06:13:40;12.57;;;2.27;;
16352;SDS011;8286;51.274;9.542;2023-02-02T06:16:07;7.43;;;2.20;;
16352;SDS011;8286;51.274;9.542;2023-02-02T06:18:34;4.83;;;1.87;;
16352;SDS011;8286;51.274;9.542;2023-02-02T06:21:02;4.57;;;2.00;;
16352;SDS011;8286;51.274;9.542;2023-02-02T06:23:30;9.37;;;2.50;;
16352;SDS011;8286;51.274;9.542;2023-02-02T06:25:57;6.27;;;2.67;;
16352;SDS011;8286;51.274;9.542;2023-02-02T06:28:24;6.83;;;2.03;;
16352;SDS011;8286;51.274;9.542;2023-02-02T06:30:52;7.97;;;2.43;;
16352;SDS011;8286;51.274;9.542;2023-02-02T06:33:19;10.10;;;2.73;;
16352;SDS011;8286;51.274;9.542;2023-02-02T06:35:45;8.80;;;2.37;;
16352;SDS011;8286;51.274;9.542;2023-02-02T06:38:12;9.63;;;2.40;;
16352;SDS011;8286;51.274;9.542;2023-02-02T06:40:38;7.97;;;2.47;;
16352;SDS011;8286;51.274;9.542;2023-02-02T06:43:05;5.97;;;2.23;;
16352;SDS011;8286;51.274;9.542;2023-02-02T06:45:33;3.83;;;2.30;;
16352;SDS011;8286;51.274;9.542;2023-02-02T06:48:05;8.87;;;2.73;;
16352;SDS011;8286;51.274;9.542;2023-02-02T06:50:35;9.80;;;2.30;;
16352;SDS011;8286;51.274;9.542;2023-02-02T06:53:01;4.97;;;2.17;;
16352;SDS011;8286;51.274;9.542;2023-02-02T06:55:28;4.77;;;2.37;;
16352;SDS011;8286;51.274;9.542;2023-02-02T06:57:55;2.90;;;1.57;;
16352;SDS011;8286;51.274;9.542;2023-02-02T07:00:22;7.00;;;2.00;;
16352;SDS011;8286;51.274;9.542;2023-02-02T07:02:49;3.43;;;2.17;;
16352;SDS011;8286;51.274;9.542;2023-02-02T07:05:17;6.50;;;2.03;;
16352;SDS011;8286;51.274;9.542;2023-02-02T07:07:45;3.90;;;1.97;;
16352;SDS011;8286;51.274;9.542;2023-02-02T07:10:12;5.20;;;2.00;;
16352;SDS011;8286;51.274;9.542;2023-02-02T07:12:39;5.77;;;1.80;;
16352;SDS011;8286;51.274;9.542;2023-02-02T07:15:06;6.87;;;2.50;;
16352;SDS011;8286;51.274;9.542;2023-02-02T07:17:33;4.87;;;2.17;;
16352;SDS011;8286;51.274;9.542;2023-02-02T07:20:00;2.93;;;1.80;;
16352;SDS011;8286;51.274;9.542;2023-02-02T07:22:27;5.93;;;1.50;;
16352;SDS011;8286;51.274;9.542;2023-02-02T07:24:54;3.77;;;1.40;;
16352;SDS011;8286;51.274;9.542;2023-02-02T07:27:20;2.43;;;1.40;;
16352;SDS011;8286;51.274;9.542;2023-02-02T07:29:47;4.83;;;1.97;;
16352;SDS011;8286;51.274;9.542;2023-02-02T07:32:13;5.17;;;1.53;;
16352;SDS011;8286;51.274;9.542;2023-02-02T07:34:40;1.93;;;1.47;;
16352;SDS011;8286;51.274;9.542;2023-02-02T07:37:08;6.30;;;1.70;;
16352;SDS011;8286;51.274;9.542;2023-02-02T07:39:36;6.77;;;1.87;;
16352;SDS011;8286;51.274;9.542;2023-02-02T07:42:04;3.50;;;1.97;;
16352;SDS011;8286;51.274;9.542;2023-02-02T07:44:32;7.17;;;1.63;;
16352;SDS011;8286;51.274;9.542;2023-02-02T07:46:59;4.00;;;1.70;;
16352;SDS011;8286;51.274;9.542;2023-02-02T07:49:25;6.97;;;1.97;;
16352;SDS011;8286;51.274;9.542;2023-02-02T07:51:52;3.43;;;1.60;;
16352;SDS011;8286;51.274;9.542;2023-02-02T07:54:18;3.83;;;1.53;;
16352;SDS011;8286;51.274;9.542;2023-02-02T07:56:46;6.80;;;1.40;;
16352;SDS011;8286;51.274;9.542;2023-02-02T07:59:13;3.33;;;1.60;;
16352;SDS011;8286;51.274;9.542;2023-02-02T08:01:39;2.87;;;1.70;;
16352;SDS011;8286;51.274;9.542;2023-02-02T08:04:06;5.10;;;1.67;;
16352;SDS011;8286;51.274;9.542;2023-02-02T08:06:33;3.07;;;1.40;;
16352;SDS011;8286;51.274;9.542;2023-02-02T08:09:03;1.97;;;1.37;;
16352;SDS011;8286;51.274;9.542;2023-02-02T08:11:31;2.00;;;1.20;;
16352;SDS011;8286;51.274;9.542;2023-02-02T08:14:00;1.20;;;1.10;;
16352;SDS011;8286;51.274;9.542;2023-02-02T08:16:28;5.33;;;1.43;;
16352;SDS011;8286;51.274;9.542;2023-02-02T08:18:56;2.00;;;1.00;;
16352;SDS011;8286;51.274;9.542;2023-02-02T08:21:22;1.77;;;1.40;;
16352;SDS011;8286;51.274;9.542;2023-02-02T08:23:50;3.27;;;1.27;;
16352;SDS011;8286;51.274;9.542;2023-02-02T08:26:18;2.67;;;1.47;;
16352;SDS011;8286;51.274;9.542;2023-02-02T08:28:47;1.87;;;1.43;;
16352;SDS011;8286;51.274;9.542;2023-02-02T08:31:17;4.77;;;1.47;;
16352;SDS011;8286;51.274;9.542;2023-02-02T08:33:45;6.70;;;1.97;;
16352;SDS011;8286;51.274;9.542;2023-02-02T08:36:12;6.03;;;2.10;;
16352;SDS011;8286;51.274;9.542;2023-02-02T08:38:39;2.30;;;2.00;;
16352;SDS011;8286;51.274;9.542;2023-02-02T08:41:06;3.53;;;2.07;;
16352;SDS011;8286;51.274;9.542;2023-02-02T08:43:34;3.33;;;2.33;;
16352;SDS011;8286;51.274;9.542;2023-02-02T08:46:01;2.87;;;2.20;;
16352;SDS011;8286;51.274;9.542;2023-02-02T08:48:29;3.30;;;1.80;;
16352;SDS011;8286;51.274;9.542;2023-02-02T08:50:56;1.70;;;1.60;;
16352;SDS011;8286;51.274;9.542;2023-02-02T08:53:24;5.03;;;1.83;;
16352;SDS011;8286;51.274;9.542;2023-02-02T08:55:56;3.83;;;2.03;;
16352;SDS011;8286;51.274;9.542;2023-02-02T08:58:23;4.20;;;2.20;;
16352;SDS011;8286;51.274;9.542;2023-02-02T09:00:49;2.20;;;1.93;;
16352;SDS011;8286;51.274;9.542;2023-02-02T09:03:16;2.73;;;1.80;;
16352;SDS011;8286;51.274;9.542;2023-02-02T09:05:44;2.03;;;1.80;;
16352;SDS011;8286;51.274;9.542;2023-02-02T09:08:10;7.13;;;1.90;;
16352;SDS011;8286;51.274;9.542;2023-02-02T09:10:37;3.23;;;2.10;;
16352;SDS011;8286;51.274;9.542;2023-02-02T09:13:03;7.07;;;3.40;;
16352;SDS011;8286;51.274;9.542;2023-02-02T09:15:30;6.30;;;4.10;;
16352;SDS011;8286;51.274;9.542;2023-02-02T09:17:56;8.97;;;4.07;;
16352;SDS011;8286;51.274;9.542;2023-02-02T09:20:23;6.63;;;4.53;;
16352;SDS011;8286;51.274;9.542;2023-02-02T09:22:53;8.67;;;4.30;;
16352;SDS011;8286;51.274;9.542;2023-02-02T09:25:20;6.27;;;4.17;;
16352;SDS011;8286;51.274;9.542;2023-02-02T09:27:46;7.13;;;4.27;;
16352;SDS011;8286;51.274;9.542;2023-02-02T09:30:13;4.47;;;2.90;;
16352;SDS011;8286;51.274;9.542;2023-02-02T09:32:40;6.23;;;3.00;;
16352;SDS011;8286;51.274;9.542;2023-02-02T09:35:06;3.53;;;2.57;;
16352;SDS011;8286;51.274;9.542;2023-02-02T09:37:34;5.53;;;3.70;;
16352;SDS011;8286;51.274;9.542;2023-02-02T09:40:02;6.37;;;3.57;;
16352;SDS011;8286;51.274;9.542;2023-02-02T09:42:33;3.70;;;3.03;;
16352;SDS011;8286;51.274;9.542;2023-02-02T09:45:10;6.43;;;3.63;;
16352;SDS011;8286;51.274;9.542;2023-02-02T09:47:46;3.77;;;2.30;;
16352;SDS011;8286;51.274;9.542;2023-02-02T09:50:19;4.50;;;2.30;;
16352;SDS011;8286;51.274;9.542;2023-02-02T09:52:48;2.33;;;2.00;;
16352;SDS011;8286;51.274;9.542;2023-02-02T09:55:23;2.57;;;1.73;;
16352;SDS011;8286;51.274;9.542;2023-02-02T09:57:54;5.00;;;2.27;;
16352;SDS011;8286;51.274;9.542;2023-02-02T10:00:26;2.87;;;1.87;;
16352;SDS011;8286;51.274;9.542;2023-02-02T10:02:56;3.50;;;2.20;;
16352;SDS011;8286;51.274;9.542;2023-02-02T10:05:27;4.20;;;2.50;;
16352;SDS011;8286;51.274;9.542;2023-02-02T10:08:06;2.20;;;2.00;;
16352;SDS011;8286;51.274;9.542;2023-02-02T10:10:38;3.73;;;2.17;;
16352;SDS011;8286;51.274;9.542;2023-02-02T10:13:08;2.97;;;2.10;;
16352;SDS011;8286;51.274;9.542;2023-02-02T10:15:38;3.17;;;1.80;;
16352;SDS011;8286;51.274;9.542;2023-02-02T10:18:09;3.00;;;1.70;;
16352;SDS011;8286;51.274;9.542;2023-02-02T10:20:43;3.40;;;2.13;;
16352;SDS011;8286;51.274;9.542;2023-02-02T10:23:13;3.60;;;2.30;;
16352;SDS011;8286;51.274;9.542;2023-02-02T10:25:48;3.33;;;2.43;;
16352;SDS011;8286;51.274;9.542;2023-02-02T10:28:20;3.93;;;2.77;;
16352;SDS011;8286;51.274;9.542;2023-02-02T10:30:59;6.90;;;2.50;;
16352;SDS011;8286;51.274;9.542;2023-02-02T10:33:29;4.83;;;2.60;;
16352;SDS011;8286;51.274;9.542;2023-02-02T10:36:02;6.63;;;3.03;;
16352;SDS011;8286;51.274;9.542;2023-02-02T10:38:35;5.07;;;2.73;;
16352;SDS011;8286;51.274;9.542;2023-02-02T10:41:08;6.47;;;2.90;;
16352;SDS011;8286;51.274;9.542;2023-02-02T10:46:26;5.70;;;2.80;;
16352;SDS011;8286;51.274;9.542;2023-02-02T10:48:59;8.03;;;2.37;;
16352;SDS011;8286;51.274;9.542;2023-02-02T10:51:36;2.23;;;2.00;;
16352;SDS011;8286;51.274;9.542;2023-02-02T10:54:06;5.77;;;2.53;;
16352;SDS011;8286;51.274;9.542;2023-02-02T10:56:41;5.13;;;2.50;;
16352;SDS011;8286;51.274;9.542;2023-02-02T10:59:12;3.23;;;2.50;;
16352;SDS011;8286;51.274;9.542;2023-02-02T11:01:40;3.43;;;2.87;;
16352;SDS011;8286;51.274;9.542;2023-02-02T11:04:08;2.20;;;2.00;;
16352;SDS011;8286;51.274;9.542;2023-02-02T11:06:52;3.63;;;2.30;;
16352;SDS011;8286;51.274;9.542;2023-02-02T11:09:19;6.87;;;2.10;;
16352;SDS011;8286;51.274;9.542;2023-02-02T11:11:50;2.40;;;1.93;;
16352;SDS011;8286;51.274;9.542;2023-02-02T11:14:20;4.07;;;1.60;;
16352;SDS011;8286;51.274;9.542;2023-02-02T11:17:01;1.63;;;1.53;;
16352;SDS011;8286;51.274;9.542;2023-02-02T11:19:29;2.73;;;1.80;;
16352;SDS011;8286;51.274;9.542;2023-02-02T11:21:57;2.60;;;1.43;;
16352;SDS011;8286;51.274;9.542;2023-02-02T11:24:25;1.20;;;1.20;;
16352;SDS011;8286;51.274;9.542;2023-02-02T11:26:54;3.17;;;2.10;;
16352;SDS011;8286;51.274;9.542;2023-02-02T11:29:23;1.83;;;1.50;;
16352;SDS011;8286;51.274;9.542;2023-02-02T11:31:52;2.57;;;1.63;;
16352;SDS011;8286;51.274;9.542;2023-02-02T11:34:20;1.50;;;1.40;;
16352;SDS011;8286;51.274;9.542;2023-02-02T11:37:01;1.90;;;1.50;;
16352;SDS011;8286;51.274;9.542;2023-02-02T11:39:29;2.17;;;1.97;;
16352;SDS011;8286;51.274;9.542;2023-02-02T11:42:01;2.97;;;1.90;;
16352;SDS011;8286;51.274;9.542;2023-02-02T11:44:30;2.87;;;1.97;;
16352;SDS011;8286;51.274;9.542;2023-02-02T11:46:59;2.10;;;1.90;;
16352;SDS011;8286;51.274;9.542;2023-02-02T11:49:25;3.57;;;3.00;;
16352;SDS011;8286;51.274;9.542;2023-02-02T11:51:59;6.87;;;3.57;;
16352;SDS011;8286;51.274;9.542;2023-02-02T11:54:28;4.70;;;3.33;;
16352;SDS011;8286;51.274;9.542;2023-02-02T11:56:59;4.80;;;2.47;;
16352;SDS011;8286;51.274;9.542;2023-02-02T11:59:36;3.10;;;2.90;;
16352;SDS011;8286;51.274;9.542;2023-02-02T12:08:20;2.43;;;2.23;;
16352;SDS011;8286;51.274;9.542;2023-02-02T12:10:51;2.00;;;1.90;;
16352;SDS011;8286;51.274;9.542;2023-02-02T12:13:29;1.50;;;1.40;;
16352;SDS011;8286;51.274;9.542;2023-02-02T12:16:25;1.90;;;1.80;;
16352;SDS011;8286;51.274;9.542;2023-02-02T12:19:14;1.80;;;1.67;;
16352;SDS011;8286;51.274;9.542;2023-02-02T12:21:57;2.13;;;1.80;;
16352;SDS011;8286;51.274;9.542;2023-02-02T12:24:38;2.07;;;1.60;;
16352;SDS011;8286;51.274;9.542;2023-02-02T12:27:15;2.27;;;2.10;;
16352;SDS011;8286;51.274;9.542;2023-02-02T12:29:52;3.50;;;3.20;;
16352;SDS011;8286;51.274;9.542;2023-02-02T12:32:42;4.30;;;3.10;;
16352;SDS011;8286;51.274;9.542;2023-02-02T12:35:18;7.43;;;4.50;;
16352;SDS011;8286;51.274;9.542;2023-02-02T12:37:57;7.30;;;4.80;;
16352;SDS011;8286;51.274;9.542;2023-02-02T12:40:31;5.30;;;4.23;;
16352;SDS011;8286;51.274;9.542;2023-02-02T12:43:09;7.17;;;5.30;;
16352;SDS011;8286;51.274;9.542;2023-02-02T12:48:41;8.47;;;5.70;;
16352;SDS011;8286;51.274;9.542;2023-02-02T12:51:15;8.20;;;5.20;;
16352;SDS011;8286;51.274;9.542;2023-02-02T12:53:56;6.83;;;4.80;;
16352;SDS011;8286;51.274;9.542;2023-02-02T12:56:33;6.00;;;5.07;;
16352;SDS011;8286;51.274;9.542;2023-02-02T12:59:04;12.17;;;7.70;;
16352;SDS011;8286;51.274;9.542;2023-02-02T13:01:45;10.37;;;7.53;;
16352;SDS011;8286;51.274;9.542;2023-02-02T13:07:16;6.20;;;5.20;;
16352;SDS011;8286;51.274;9.542;2023-02-02T13:09:50;5.63;;;4.23;;
16352;SDS011;8286;51.274;9.542;2023-02-02T13:12:43;4.73;;;4.33;;
16352;SDS011;8286;51.274;9.542;2023-02-02T13:15:14;5.47;;;4.63;;
16352;SDS011;8286;51.274;9.542;2023-02-02T13:17:45;5.37;;;4.37;;
16352;SDS011;8286;51.274;9.542;2023-02-02T13:20:22;5.23;;;4.10;;
16352;SDS011;8286;51.274;9.542;2023-02-02T13:22:54;7.23;;;3.83;;
16352;SDS011;8286;51.274;9.542;2023-02-02T13:25:23;4.10;;;2.90;;
16352;SDS011;8286;51.274;9.542;2023-02-02T13:27:52;4.23;;;2.63;;
16352;SDS011;8286;51.274;9.542;2023-02-02T13:30:21;3.67;;;2.73;;
16352;SDS011;8286;51.274;9.542;2023-02-02T13:32:55;3.33;;;1.70;;
16352;SDS011;8286;51.274;9.542;2023-02-02T13:35:24;1.17;;;1.17;;
16352;SDS011;8286;51.274;9.542;2023-02-02T13:37:54;1.90;;;1.40;;
16352;SDS011;8286;51.274;9.542;2023-02-02T13:40:26;2.37;;;1.20;;
16352;SDS011;8286;51.274;9.542;2023-02-02T13:42:57;1.67;;;1.37;;
16352;SDS011;8286;51.274;9.542;2023-02-02T13:45:35;1.93;;;1.37;;
16352;SDS011;8286;51.274;9.542;2023-02-02T13:48:12;1.53;;;1.10;;
16352;SDS011;8286;51.274;9.542;2023-02-02T13:50:45;3.23;;;1.10;;
16352;SDS011;8286;51.274;9.542;2023-02-02T13:53:23;1.37;;;0.90;;
16352;SDS011;8286;51.274;9.542;2023-02-02T13:56:09;1.40;;;1.07;;
16352;SDS011;8286;51.274;9.542;2023-02-02T13:59:03;0.80;;;0.80;;
16352;SDS011;8286;51.274;9.542;2023-02-02T14:01:36;1.03;;;1.03;;
16352;SDS011;8286;51.274;9.542;2023-02-02T14:04:05;1.80;;;0.90;;
16352;SDS011;8286;51.274;9.542;2023-02-02T14:06:50;1.10;;;1.10;;
16352;SDS011;8286;51.274;9.542;2023-02-02T14:09:23;3.40;;;1.20;;
16352;SDS011;8286;51.274;9.542;2023-02-02T14:11:54;4.47;;;1.80;;
16352;SDS011;8286;51.274;9.542;2023-02-02T14:14:22;1.10;;;1.10;;
16352;SDS011;8286;51.274;9.542;2023-02-02T14:16:59;1.77;;;1.20;;
16352;SDS011;8286;51.274;9.542;2023-02-02T14:19:47;1.53;;;1.30;;
16352;SDS011;8286;51.274;9.542;2023-02-02T14:22:19;1.00;;;0.93;;
16352;SDS011;8286;51.274;9.542;2023-02-02T14:25:01;3.47;;;1.47;;
16352;SDS011;8286;51.274;9.542;2023-02-02T14:30:22;2.20;;;1.10;;
16352;SDS011;8286;51.274;9.542;2023-02-02T14:32:53;1.20;;;1.20;;
16352;SDS011;8286;51.274;9.542;2023-02-02T14:36:02;1.27;;;1.10;;
16352;SDS011;8286;51.274;9.542;2023-02-02T14:38:42;2.43;;;1.20;;
16352;SDS011;8286;51.274;9.542;2023-02-02T14:41:17;2.40;;;1.80;;
16352;SDS011;8286;51.274;9.542;2023-02-02T14:44:09;1.77;;;1.40;;
16352;SDS011;8286;51.274;9.542;2023-02-02T14:46:38;1.60;;;1.50;;
16352;SDS011;8286;51.274;9.542;2023-02-02T14:49:14;1.60;;;1.50;;
16352;SDS011;8286;51.274;9.542;2023-02-02T14:51:48;1.33;;;1.23;;
16352;SDS011;8286;51.274;9.542;2023-02-02T14:54:18;1.53;;;1.50;;
16352;SDS011;8286;51.274;9.542;2023-02-02T14:56:48;1.90;;;1.80;;
16352;SDS011;8286;51.274;9.542;2023-02-02T14:59:18;1.60;;;1.50;;
16352;SDS011;8286;51.274;9.542;2023-02-02T15:01:52;1.80;;;1.70;;
16352;SDS011;8286;51.274;9.542;2023-02-02T15:04:23;3.53;;;1.77;;
16352;SDS011;8286;51.274;9.542;2023-02-02T15:06:53;2.53;;;2.20;;
16352;SDS011;8286;51.274;9.542;2023-02-02T15:09:31;1.87;;;1.77;;
16352;SDS011;8286;51.274;9.542;2023-02-02T15:15:07;1.87;;;1.70;;
16352;SDS011;8286;51.274;9.542;2023-02-02T15:17:43;2.23;;;2.03;;
16352;SDS011;8286;51.274;9.542;2023-02-02T15:20:14;1.97;;;1.73;;
16352;SDS011;8286;51.274;9.542;2023-02-02T15:22:47;1.77;;;1.60;;
16352;SDS011;8286;51.274;9.542;2023-02-02T15:25:18;1.80;;;1.70;;
16352;SDS011;8286;51.274;9.542;2023-02-02T15:27:50;5.97;;;2.07;;
16352;SDS011;8286;51.274;9.542;2023-02-02T15:30:18;1.53;;;1.43;;
16352;SDS011;8286;51.274;9.542;2023-02-02T15:32:45;2.23;;;1.83;;
16352;SDS011;8286;51.274;9.542;2023-02-02T15:35:14;2.80;;;1.90;;
16352;SDS011;8286;51.274;9.542;2023-02-02T15:37:44;2.87;;;1.90;;
16352;SDS011;8286;51.274;9.542;2023-02-02T15:40:19;2.33;;;1.90;;
16352;SDS011;8286;51.274;9.542;2023-02-02T15:42:48;2.73;;;2.10;;
16352;SDS011;8286;51.274;9.542;2023-02-02T15:45:28;2.27;;;2.07;;